Time;durP1;ratioP1;P1;durP2;ratioP2;P2;SDS_P1;SDS_P2;PMS_P1;PMS_P2;Temp;Humidity;BMP_temperature;BMP_pressure;BME280_temperature;BME280_humidity;BME280_pressure;Samples;Min_cycle;Max_cycle;Signal;HPM_P1;HPM_P2
2023/08/22 00:02:00;;;;;;;13.18;6.38;;;20.40;99.90;;;;;;5054250;28;20544;-80
2023/08/22 00:04:26;;;;;;;7.55;6.38;;;20.40;99.90;;;;;;5054013;28;20036;-80
2023/08/22 00:06:52;;;;;;;9.95;5.90;;;20.40;99.90;;;;;;5054093;28;20029;-79
2023/08/22 00:09:17;;;;;;;7.20;5.88;;;20.30;99.90;;;;;;5053969;28;20502;-80
2023/08/22 00:11:43;;;;;;;7.78;6.22;;;20.30;99.90;;;;;;5054032;28;20025;-80
2023/08/22 00:14:09;;;;;;;7.10;6.25;;;20.30;99.90;;;;;;5054216;28;20526;-80
2023/08/22 00:16:34;;;;;;;7.68;6.40;;;20.30;99.90;;;;;;5053615;28;20099;-80
2023/08/22 00:19:00;;;;;;;6.15;5.55;;;20.40;99.90;;;;;;5053429;28;20025;-80
2023/08/22 00:21:26;;;;;;;7.25;6.30;;;20.40;99.90;;;;;;5036026;28;20032;-80
2023/08/22 00:23:51;;;;;;;8.35;6.13;;;20.40;99.90;;;;;;5036034;28;20445;-79
2023/08/22 00:26:17;;;;;;;9.80;6.13;;;20.30;99.90;;;;;;5053623;28;20060;-79
2023/08/22 00:28:42;;;;;;;6.85;6.15;;;20.20;99.90;;;;;;5058626;28;20025;-79
2023/08/22 00:31:08;;;;;;;8.20;6.63;;;20.20;99.90;;;;;;5067535;28;20035;-80
2023/08/22 00:33:33;;;;;;;7.50;6.32;;;20.20;99.90;;;;;;5054009;28;20021;-80
2023/08/22 00:35:59;;;;;;;9.88;6.88;;;20.20;99.90;;;;;;5055239;28;20029;-80
2023/08/22 00:38:25;;;;;;;11.00;5.82;;;20.20;99.90;;;;;;5037739;28;20078;-80
2023/08/22 00:40:50;;;;;;;8.43;6.93;;;20.20;99.90;;;;;;5055036;28;20037;-81
2023/08/22 00:43:16;;;;;;;7.13;5.88;;;20.20;99.90;;;;;;5042741;28;20040;-80
2023/08/22 00:45:43;;;;;;;7.28;6.35;;;20.30;99.90;;;;;;5044476;28;20029;-80
2023/08/22 00:48:08;;;;;;;7.75;6.43;;;20.30;99.90;;;;;;5061291;28;20045;-80
2023/08/22 00:50:34;;;;;;;7.47;6.13;;;20.20;99.90;;;;;;5045328;28;20024;-80
2023/08/22 00:53:00;;;;;;;9.95;6.82;;;20.20;99.90;;;;;;5055697;28;20025;-80
2023/08/22 00:55:26;;;;;;;7.25;6.53;;;20.30;99.90;;;;;;5054412;28;20499;-81
2023/08/22 00:57:52;;;;;;;6.80;6.18;;;20.30;99.90;;;;;;5053794;28;20128;-80
2023/08/22 01:00:17;;;;;;;7.28;6.10;;;20.20;99.90;;;;;;5053755;28;20112;-80
2023/08/22 01:02:44;;;;;;;9.35;6.10;;;20.20;99.90;;;;;;5035899;28;20056;-80
2023/08/22 01:05:10;;;;;;;7.47;5.97;;;20.10;99.90;;;;;;5053257;28;20025;-80
2023/08/22 01:07:42;;;;;;;6.93;5.90;;;20.10;99.90;;;;;;5053500;28;20029;-80
2023/08/22 01:10:28;;;;;;;9.27;7.25;;;20.00;99.90;;;;;;5052225;28;20569;-80
2023/08/22 01:13:25;;;;;;;7.32;6.13;;;20.00;99.90;;;;;;5035327;28;20025;-80
2023/08/22 01:15:50;;;;;;;10.63;6.93;;;20.10;99.90;;;;;;5051875;28;20025;-79
2023/08/22 01:18:18;;;;;;;6.60;5.93;;;20.20;99.90;;;;;;5053138;28;20021;-80
2023/08/22 01:20:44;;;;;;;6.65;5.90;;;20.10;99.90;;;;;;5035085;28;20029;-80
2023/08/22 01:23:09;;;;;;;7.13;6.10;;;20.10;99.90;;;;;;5035602;28;20055;-80
2023/08/22 01:25:37;;;;;;;6.53;5.68;;;20.00;99.90;;;;;;5053281;28;20053;-80
2023/08/22 01:28:17;;;;;;;7.93;5.93;;;19.90;99.90;;;;;;5035029;28;20127;-80
2023/08/22 01:31:02;;;;;;;7.88;6.00;;;19.90;99.90;;;;;;5053396;28;20028;-80
2023/08/22 01:33:34;;;;;;;7.55;6.35;;;19.90;99.90;;;;;;5034998;28;20402;-80
2023/08/22 01:36:01;;;;;;;7.57;5.88;;;19.80;99.90;;;;;;5053654;28;20099;-79
2023/08/22 01:38:29;;;;;;;7.88;5.70;;;19.80;99.90;;;;;;5051832;28;20062;-80
2023/08/22 01:40:55;;;;;;;7.55;6.78;;;19.70;99.90;;;;;;5051740;28;20399;-80
2023/08/22 01:43:21;;;;;;;6.60;5.93;;;19.70;99.90;;;;;;5053090;28;20025;-80
2023/08/22 01:45:47;;;;;;;8.13;6.30;;;19.70;99.90;;;;;;5035005;28;20486;-80
2023/08/22 01:48:13;;;;;;;10.48;6.82;;;19.70;99.90;;;;;;5052452;28;20033;-80
2023/08/22 01:50:38;;;;;;;9.68;6.28;;;19.70;99.90;;;;;;5052462;28;20100;-80
2023/08/22 01:53:04;;;;;;;11.85;7.03;;;19.60;99.90;;;;;;5055319;28;20387;-80
2023/08/22 01:55:30;;;;;;;8.25;6.80;;;19.60;99.90;;;;;;5056057;28;20390;-80
2023/08/22 01:57:55;;;;;;;8.27;5.93;;;19.60;99.90;;;;;;5037966;28;20036;-80
2023/08/22 02:00:21;;;;;;;6.90;5.78;;;19.60;99.90;;;;;;5056177;28;20025;-80
2023/08/22 02:02:47;;;;;;;7.90;6.47;;;19.50;99.90;;;;;;5038263;28;20123;-80
2023/08/22 02:05:13;;;;;;;7.65;6.85;;;19.50;99.90;;;;;;5038035;28;20040;-80
2023/08/22 02:07:38;;;;;;;8.75;7.07;;;19.50;99.90;;;;;;5054497;28;20486;-79
2023/08/22 02:10:04;;;;;;;8.80;6.10;;;19.60;99.90;;;;;;5056131;28;20028;-80
2023/08/22 02:12:30;;;;;;;10.43;7.03;;;19.60;99.90;;;;;;5054557;28;20032;-79
2023/08/22 02:14:56;;;;;;;7.55;6.45;;;19.50;99.90;;;;;;5038148;28;20077;-80
2023/08/22 02:17:21;;;;;;;7.18;6.13;;;19.50;99.90;;;;;;5037657;28;20108;-80
2023/08/22 02:19:47;;;;;;;9.13;6.95;;;19.50;99.90;;;;;;5055735;28;20025;-80
2023/08/22 02:22:13;;;;;;;9.85;5.85;;;19.50;99.90;;;;;;5037985;28;20032;-80
2023/08/22 02:24:38;;;;;;;8.32;5.95;;;19.40;99.90;;;;;;5038248;28;20063;-81
2023/08/22 02:27:04;;;;;;;9.98;6.75;;;19.40;99.90;;;;;;5054192;28;20086;-80
2023/08/22 02:29:30;;;;;;;6.95;6.18;;;19.40;99.90;;;;;;5056011;28;20539;-80
2023/08/22 02:31:56;;;;;;;9.25;6.63;;;19.30;99.90;;;;;;5055877;28;20124;-80
2023/08/22 02:34:22;;;;;;;9.65;6.18;;;19.30;99.90;;;;;;5056053;28;20032;-80
2023/08/22 02:36:48;;;;;;;7.65;6.85;;;19.20;99.90;;;;;;5055405;28;20036;-80
2023/08/22 02:39:14;;;;;;;7.78;6.50;;;19.20;99.90;;;;;;5055634;28;20021;-80
2023/08/22 02:41:39;;;;;;;9.73;6.10;;;19.20;99.90;;;;;;5055860;28;20028;-80
2023/08/22 02:44:06;;;;;;;8.10;6.22;;;19.20;99.90;;;;;;5055626;28;20078;-80
2023/08/22 02:46:31;;;;;;;6.88;6.07;;;19.20;99.90;;;;;;5083731;22;20043;-81
2023/08/22 02:48:57;;;;;;;11.30;6.78;;;19.20;99.90;;;;;;5055918;28;20032;-81
2023/08/22 02:51:23;;;;;;;9.13;7.03;;;19.20;99.90;;;;;;5074679;28;20025;-81
2023/08/22 02:53:48;;;;;;;11.45;6.70;;;19.20;99.90;;;;;;5056617;28;20047;-81
2023/08/22 02:56:14;;;;;;;10.05;6.85;;;19.20;99.90;;;;;;5073907;28;20411;-81
2023/08/22 02:58:40;;;;;;;8.68;7.78;;;19.30;99.90;;;;;;5073173;28;20021;-81
2023/08/22 03:01:07;;;;;;;12.32;6.93;;;19.20;99.90;;;;;;5055734;28;20024;-81
2023/08/22 03:03:33;;;;;;;10.55;7.35;;;19.20;99.90;;;;;;5073813;28;20444;-81
2023/08/22 03:05:59;;;;;;;10.18;6.78;;;19.20;99.90;;;;;;5056156;28;20029;-81
2023/08/22 03:08:25;;;;;;;8.50;6.88;;;19.20;99.90;;;;;;5073773;28;20020;-81
2023/08/22 03:10:51;;;;;;;8.20;6.35;;;19.20;99.90;;;;;;5056308;28;20074;-81
2023/08/22 03:13:16;;;;;;;8.38;5.90;;;19.20;99.90;;;;;;5056194;28;20017;-82
2023/08/22 03:15:42;;;;;;;10.32;6.78;;;19.20;99.90;;;;;;5073986;28;20036;-81
2023/08/22 03:18:08;;;;;;;7.70;6.53;;;19.10;99.90;;;;;;5055856;28;20523;-81
2023/08/22 03:20:33;;;;;;;7.43;6.18;;;19.10;99.90;;;;;;5056092;28;20552;-81
2023/08/22 03:23:00;;;;;;;6.60;5.97;;;19.10;99.90;;;;;;5073739;28;20059;-79
2023/08/22 03:25:26;;;;;;;7.22;6.25;;;19.00;99.90;;;;;;5056018;28;20036;-81
2023/08/22 03:27:52;;;;;;;9.57;5.63;;;19.00;99.90;;;;;;5073518;28;20024;-81
2023/08/22 03:30:17;;;;;;;8.23;5.82;;;19.00;99.90;;;;;;5055773;28;20453;-81
2023/08/22 03:32:43;;;;;;;7.13;6.28;;;19.00;99.90;;;;;;5055716;28;20471;-79
2023/08/22 03:35:09;;;;;;;7.10;5.68;;;19.00;99.90;;;;;;5055699;28;20482;-80
2023/08/22 03:37:35;;;;;;;6.20;5.28;;;18.90;99.90;;;;;;5073463;28;20029;-80
2023/08/22 03:40:02;;;;;;;9.95;5.82;;;18.90;99.90;;;;;;5073608;28;20029;-81
2023/08/22 03:42:28;;;;;;;6.78;5.70;;;18.90;99.90;;;;;;5055811;28;20035;-82
2023/08/22 03:44:53;;;;;;;8.52;6.00;;;18.90;99.90;;;;;;5055623;28;20398;-81
2023/08/22 03:47:19;;;;;;;8.50;6.53;;;18.90;99.90;;;;;;5055103;28;20033;-80
2023/08/22 03:49:44;;;;;;;7.28;5.82;;;18.90;99.90;;;;;;5055522;28;20024;-82
2023/08/22 03:52:11;;;;;;;8.35;6.45;;;18.90;99.90;;;;;;5073502;28;20024;-80
2023/08/22 03:54:37;;;;;;;7.78;6.30;;;18.80;99.90;;;;;;5055467;28;20024;-81
2023/08/22 03:57:03;;;;;;;6.70;5.97;;;18.80;99.90;;;;;;5073015;28;20717;-81
2023/08/22 03:59:28;;;;;;;8.18;6.43;;;18.80;99.90;;;;;;5055300;28;20024;-80
2023/08/22 04:01:54;;;;;;;10.82;6.45;;;18.80;99.90;;;;;;5073478;28;20024;-80
2023/08/22 04:04:19;;;;;;;7.85;6.75;;;18.80;99.90;;;;;;5055195;28;20021;-80
2023/08/22 04:06:45;;;;;;;7.53;6.68;;;18.80;99.90;;;;;;5054870;28;20483;-81
2023/08/22 04:09:10;;;;;;;9.55;7.03;;;18.80;99.90;;;;;;5055212;28;20138;-81
2023/08/22 04:11:37;;;;;;;7.90;6.85;;;18.80;99.90;;;;;;5055408;28;20032;-81
2023/08/22 04:14:03;;;;;;;9.27;7.18;;;18.80;99.90;;;;;;5054954;28;20028;-81
2023/08/22 04:16:29;;;;;;;7.88;7.07;;;18.80;99.90;;;;;;5055127;28;20028;-83
2023/08/22 04:18:54;;;;;;;13.48;7.90;;;18.90;99.90;;;;;;5055168;28;20078;-80
2023/08/22 04:21:20;;;;;;;9.27;6.97;;;18.90;99.90;;;;;;5055022;28;20021;-80
2023/08/22 04:23:45;;;;;;;12.55;7.85;;;18.90;99.90;;;;;;5055288;28;20025;-81
2023/08/22 04:26:11;;;;;;;8.60;7.25;;;18.90;99.90;;;;;;5054924;28;20021;-80
2023/08/22 04:28:37;;;;;;;12.75;8.10;;;18.80;99.90;;;;;;5072229;28;20028;-80
2023/08/22 04:31:02;;;;;;;10.23;8.38;;;18.80;99.90;;;;;;5054936;28;20020;-80
2023/08/22 04:33:28;;;;;;;13.85;7.97;;;18.80;99.90;;;;;;5054723;28;20024;-80
2023/08/22 04:35:54;;;;;;;14.93;7.85;;;18.90;99.90;;;;;;5054668;28;20017;-81
2023/08/22 04:38:20;;;;;;;10.68;7.15;;;18.90;99.90;;;;;;5054559;28;20482;-81
2023/08/22 04:40:46;;;;;;;8.80;6.95;;;18.90;99.90;;;;;;5054855;28;20031;-80
2023/08/22 04:43:12;;;;;;;10.10;7.82;;;18.90;99.90;;;;;;5054737;28;20055;-83
2023/08/22 04:45:37;;;;;;;8.27;6.93;;;19.00;99.90;;;;;;5054559;28;20024;-81
2023/08/22 04:48:03;;;;;;;8.60;7.15;;;19.10;99.90;;;;;;5054144;28;20024;-80
2023/08/22 04:50:29;;;;;;;12.07;7.70;;;19.10;99.90;;;;;;5054503;28;20021;-81
2023/08/22 04:52:55;;;;;;;11.75;7.80;;;19.20;99.90;;;;;;5054563;28;20032;-81
2023/08/22 04:55:21;;;;;;;8.98;8.00;;;19.20;99.90;;;;;;5059509;28;20025;-82
2023/08/22 04:57:47;;;;;;;8.90;7.60;;;19.30;99.90;;;;;;5088185;28;20020;-85
2023/08/22 05:00:13;;;;;;;8.95;7.25;;;19.30;99.90;;;;;;5066717;28;20028;-84
2023/08/22 05:02:39;;;;;;;10.15;7.75;;;19.30;99.90;;;;;;5056054;28;20020;-84
2023/08/22 05:05:07;;;;;;;8.02;7.13;;;20.30;99.90;;;;;;5055287;28;20035;-83
2023/08/22 05:07:32;;;;;;;9.65;6.65;;;21.00;99.90;;;;;;5054792;28;20120;-84
2023/08/22 05:09:58;;;;;;;14.10;7.97;;;20.90;99.90;;;;;;5073469;28;20497;-85
2023/08/22 05:12:24;;;;;;;8.30;7.10;;;21.00;99.90;;;;;;5061588;28;20109;-84
2023/08/22 05:14:49;;;;;;;8.70;7.05;;;21.30;99.90;;;;;;5056783;28;20032;-80
2023/08/22 05:17:15;;;;;;;10.50;7.03;;;21.40;99.90;;;;;;5054226;28;20025;-80
2023/08/22 05:19:40;;;;;;;11.55;8.10;;;21.30;99.90;;;;;;5072214;28;20025;-80
2023/08/22 05:22:06;;;;;;;7.47;6.13;;;21.10;99.90;;;;;;5054731;28;20328;-81
2023/08/22 05:24:32;;;;;;;11.30;6.90;;;20.80;99.90;;;;;;5054930;28;20552;-80
2023/08/22 05:26:57;;;;;;;8.63;7.05;;;21.00;99.90;;;;;;5055355;28;20024;-80
2023/08/22 05:29:23;;;;;;;9.15;6.57;;;20.90;99.90;;;;;;5076422;28;20391;-79
2023/08/22 05:31:49;;;;;;;7.70;6.40;;;21.00;99.90;;;;;;5076454;28;20048;-79
2023/08/22 05:34:15;;;;;;;9.73;6.32;;;20.90;99.90;;;;;;5054056;28;20028;-81
2023/08/22 05:36:40;;;;;;;7.60;6.55;;;20.90;99.90;;;;;;5038416;28;20017;-79
2023/08/22 05:39:06;;;;;;;6.88;6.18;;;21.20;99.90;;;;;;5038029;28;20509;-81
2023/08/22 05:41:32;;;;;;;10.57;6.20;;;21.40;99.90;;;;;;5037958;28;20116;-80
2023/08/22 05:43:58;;;;;;;11.90;7.18;;;21.50;99.90;;;;;;5038028;28;20119;-79
2023/08/22 05:46:23;;;;;;;8.80;6.40;;;21.70;99.90;;;;;;5037686;28;20090;-79
2023/08/22 05:48:49;;;;;;;8.50;6.80;;;21.70;99.90;;;;;;5055437;28;20029;-80
2023/08/22 05:51:15;;;;;;;10.60;6.90;;;21.80;99.90;;;;;;5037826;28;20024;-79
2023/08/22 05:53:41;;;;;;;9.20;7.47;;;21.90;99.90;;;;;;5037793;28;20540;-80
2023/08/22 05:56:07;;;;;;;7.95;6.95;;;22.30;99.90;;;;;;5055587;28;20021;-80
2023/08/22 05:58:34;;;;;;;9.57;7.38;;;22.40;99.90;;;;;;5056183;28;20029;-80
2023/08/22 06:01:11;;;;;;;8.70;7.80;;;22.60;99.90;;;;;;5037703;28;20057;-81
2023/08/22 06:03:38;;;;;;;8.05;6.60;;;22.70;99.90;;;;;;5055364;28;20033;-79
2023/08/22 06:06:04;;;;;;;10.10;7.07;;;23.00;99.90;;;;;;5037375;28;20111;-82
2023/08/22 06:08:30;;;;;;;8.48;6.88;;;22.70;99.90;;;;;;5071085;28;20116;-78
2023/08/22 06:10:56;;;;;;;8.40;7.00;;;22.70;99.90;;;;;;5057419;28;20051;-77
2023/08/22 06:13:23;;;;;;;9.23;7.22;;;22.70;99.90;;;;;;5057519;28;20413;-79
2023/08/22 06:15:49;;;;;;;9.13;7.50;;;22.60;99.90;;;;;;5075049;28;20386;-79
2023/08/22 06:18:14;;;;;;;9.43;6.80;;;22.50;99.90;;;;;;5057030;28;20063;-79
2023/08/22 06:20:40;;;;;;;9.60;7.72;;;22.50;99.90;;;;;;5075120;28;20049;-78
2023/08/22 06:23:06;;;;;;;12.13;7.22;;;22.60;99.90;;;;;;5075078;28;20096;-78
2023/08/22 06:25:34;;;;;;;7.30;6.60;;;22.60;99.90;;;;;;5056890;28;20533;-78
2023/08/22 06:28:00;;;;;;;8.85;7.28;;;22.60;99.90;;;;;;5056544;28;20126;-78
2023/08/22 06:30:27;;;;;;;8.15;7.15;;;22.70;99.90;;;;;;5056900;28;20029;-80
2023/08/22 06:32:53;;;;;;;12.85;7.32;;;22.80;99.90;;;;;;5056870;28;20024;-78
2023/08/22 06:35:18;;;;;;;10.60;6.68;;;22.90;99.90;;;;;;5090443;28;20547;-78
2023/08/22 06:37:44;;;;;;;6.60;5.93;;;23.00;99.90;;;;;;5056097;28;20424;-79
2023/08/22 06:40:10;;;;;;;7.82;5.40;;;23.00;99.90;;;;;;5056995;28;20052;-81
2023/08/22 06:42:35;;;;;;;7.28;5.68;;;23.30;99.90;;;;;;5090021;28;20099;-80
2023/08/22 06:45:01;;;;;;;9.95;6.65;;;23.60;99.90;;;;;;5056769;28;20482;-78
2023/08/22 06:47:26;;;;;;;9.85;6.88;;;23.80;99.90;;;;;;5089641;28;20033;-78
2023/08/22 06:49:52;;;;;;;7.90;6.50;;;23.90;99.90;;;;;;5056785;28;20056;-79
2023/08/22 06:52:19;;;;;;;13.65;6.68;;;23.90;99.90;;;;;;5090151;28;20113;-78
2023/08/22 06:54:45;;;;;;;9.85;6.38;;;24.00;99.90;;;;;;5056561;28;20544;-78
2023/08/22 06:57:10;;;;;;;10.98;6.32;;;24.10;99.90;;;;;;5056037;28;20024;-80
2023/08/22 06:59:36;;;;;;;9.48;6.53;;;24.20;99.90;;;;;;5056422;28;20035;-79
2023/08/22 07:02:02;;;;;;;7.47;5.97;;;24.40;99.90;;;;;;5074131;28;20028;-79
2023/08/22 07:04:29;;;;;;;8.73;6.32;;;24.50;99.90;;;;;;5074253;28;20070;-79
2023/08/22 07:06:55;;;;;;;7.18;5.97;;;24.70;99.90;;;;;;5056039;28;20037;-80
2023/08/22 07:09:21;;;;;;;9.25;6.28;;;24.80;99.90;;;;;;5056119;28;20391;-78
2023/08/22 07:11:46;;;;;;;7.13;6.43;;;25.00;99.90;;;;;;5056327;28;20020;-80
2023/08/22 07:14:12;;;;;;;8.82;6.03;;;25.10;99.90;;;;;;5056158;28;20517;-79
2023/08/22 07:16:37;;;;;;;9.48;6.38;;;25.30;99.90;;;;;;5055882;28;20111;-80
2023/08/22 07:19:03;;;;;;;8.43;6.38;;;25.40;99.90;;;;;;5055616;28;20028;-79
2023/08/22 07:21:28;;;;;;;9.52;5.80;;;25.40;99.90;;;;;;5077852;28;20036;-81
2023/08/22 07:23:55;;;;;;;7.10;6.30;;;25.40;99.90;;;;;;5061815;28;20087;-83
2023/08/22 07:26:21;;;;;;;12.35;7.05;;;25.50;99.90;;;;;;5077652;28;20021;-80
2023/08/22 07:28:46;;;;;;;6.70;5.88;;;25.60;99.90;;;;;;5079046;28;20157;-83
2023/08/22 07:31:12;;;;;;;9.10;6.50;;;25.70;99.90;;;;;;5061086;28;20311;-81
2023/08/22 07:33:37;;;;;;;10.77;6.72;;;25.90;99.90;;;;;;5078450;28;20032;-83
2023/08/22 07:36:03;;;;;;;8.30;6.03;;;26.20;99.90;;;;;;5060557;28;20086;-81
2023/08/22 07:38:29;;;;;;;11.00;6.35;;;26.40;99.90;;;;;;5096967;28;20033;-81
2023/08/22 07:40:54;;;;;;;7.25;5.97;;;26.50;99.90;;;;;;5059824;28;20032;-81
2023/08/22 07:43:20;;;;;;;7.13;6.15;;;26.70;99.90;;;;;;5080156;28;20052;-79
2023/08/22 07:45:46;;;;;;;6.80;6.05;;;26.90;99.90;;;;;;5084350;28;20042;-78
2023/08/22 07:48:13;;;;;;;11.52;6.57;;;27.00;99.90;;;;;;5063580;28;20106;-78
2023/08/22 07:50:38;;;;;;;8.43;6.72;;;27.10;99.90;;;;;;5078658;28;20025;-79
2023/08/22 07:53:05;;;;;;;6.68;5.97;;;27.30;99.90;;;;;;5063709;28;20111;-77
2023/08/22 07:55:31;;;;;;;10.50;7.15;;;27.30;99.90;;;;;;5061391;28;20052;-78
2023/08/22 07:57:57;;;;;;;7.05;6.35;;;27.50;99.90;;;;;;5074527;28;20036;-77
2023/08/22 08:00:22;;;;;;;9.02;6.68;;;27.60;99.90;;;;;;5073184;28;20029;-79
2023/08/22 08:02:49;;;;;;;6.47;5.38;;;27.80;99.90;;;;;;5073121;28;20032;-77
2023/08/22 08:05:15;;;;;;;9.65;6.15;;;27.80;99.90;;;;;;5055099;28;20031;-78
2023/08/22 08:07:41;;;;;;;8.70;6.68;;;27.90;99.90;;;;;;5072594;28;20024;-78
2023/08/22 08:10:08;;;;;;;8.30;6.35;;;28.10;99.90;;;;;;5072753;28;20036;-77
2023/08/22 08:12:33;;;;;;;6.00;5.40;;;28.30;99.90;;;;;;5054632;28;20103;-77
2023/08/22 08:14:59;;;;;;;6.65;5.95;;;28.40;99.90;;;;;;5054610;28;20162;-78
2023/08/22 08:17:25;;;;;;;7.38;6.57;;;28.70;99.90;;;;;;5054392;28;20115;-76
2023/08/22 08:19:51;;;;;;;6.55;5.95;;;28.90;99.90;;;;;;5055096;28;20094;-76
2023/08/22 08:22:17;;;;;;;8.18;6.30;;;28.90;99.90;;;;;;5072829;28;20471;-76
2023/08/22 08:24:43;;;;;;;7.28;6.00;;;29.10;99.90;;;;;;5072434;28;20070;-81
2023/08/22 08:27:08;;;;;;;7.28;6.18;;;29.20;99.90;;;;;;5054275;28;20387;-81
2023/08/22 08:29:34;;;;;;;6.93;5.70;;;29.30;99.50;;;;;;5072393;28;20035;-80
2023/08/22 08:32:00;;;;;;;6.40;5.78;;;29.50;99.20;;;;;;5054440;28;20474;-80
2023/08/22 08:34:25;;;;;;;6.43;5.35;;;29.40;96.50;;;;;;5054361;28;20103;-80
2023/08/22 08:36:51;;;;;;;5.95;5.22;;;29.60;96.40;;;;;;5054689;28;20024;-80
2023/08/22 08:39:20;;;;;;;7.93;5.18;;;29.60;94.60;;;;;;5055225;28;20020;-80
2023/08/22 08:42:12;;;;;;;5.60;5.07;;;29.70;95.10;;;;;;5072481;28;20032;-81
2023/08/22 08:44:38;;;;;;;5.50;4.80;;;29.90;92.30;;;;;;5061760;28;20041;-81
2023/08/22 08:47:10;;;;;;;7.93;5.22;;;29.80;93.10;;;;;;5065973;22;20143;-78
2023/08/22 08:49:37;;;;;;;4.90;4.43;;;30.00;93.70;;;;;;5056747;28;20495;-79
2023/08/22 08:52:04;;;;;;;3.88;3.50;;;30.00;92.10;;;;;;5055567;28;20143;-80
2023/08/22 08:54:31;;;;;;;8.13;3.83;;;30.10;83.10;;;;;;5037243;28;20025;-79
2023/08/22 08:56:57;;;;;;;4.00;3.60;;;30.10;80.70;;;;;;5055726;28;20053;-78
2023/08/22 08:59:23;;;;;;;5.25;3.53;;;30.20;83.90;;;;;;5038652;28;20071;-77
2023/08/22 09:01:50;;;;;;;5.45;4.03;;;30.40;81.80;;;;;;5036947;28;20032;-78
2023/08/22 09:04:17;;;;;;;4.00;3.67;;;30.40;81.00;;;;;;5036467;28;20021;-79
2023/08/22 09:06:45;;;;;;;4.40;3.40;;;30.50;79.90;;;;;;5054155;28;20116;-77
2023/08/22 09:09:12;;;;;;;5.70;3.60;;;30.60;78.30;;;;;;5036277;28;20035;-79
2023/08/22 09:11:51;;;;;;;4.05;3.65;;;30.60;76.80;;;;;;5037954;28;20029;-79
2023/08/22 09:14:19;;;;;;;4.05;3.67;;;30.70;74.00;;;;;;5036733;28;20054;-79
2023/08/22 09:16:45;;;;;;;3.88;3.45;;;30.80;77.40;;;;;;5034888;28;20024;-79
2023/08/22 09:19:13;;;;;;;4.57;3.60;;;30.90;77.70;;;;;;5053967;28;20100;-79
2023/08/22 09:21:54;;;;;;;4.95;3.90;;;31.00;79.00;;;;;;5036037;28;20092;-78
2023/08/22 09:24:24;;;;;;;4.15;3.67;;;31.10;73.50;;;;;;5053593;28;20044;-79
2023/08/22 09:26:50;;;;;;;4.70;3.47;;;31.20;74.10;;;;;;5037392;28;20029;-79
2023/08/22 09:29:25;;;;;;;4.18;3.78;;;31.20;73.00;;;;;;5054886;28;20028;-78
2023/08/22 09:31:54;;;;;;;4.47;3.67;;;31.30;74.60;;;;;;5054484;28;20491;-81
2023/08/22 09:34:20;;;;;;;6.05;3.58;;;31.30;73.80;;;;;;5054361;28;20040;-79
2023/08/22 09:36:46;;;;;;;4.15;3.75;;;31.30;71.80;;;;;;5035962;28;20021;-79
2023/08/22 09:39:19;;;;;;;3.78;3.47;;;31.40;71.60;;;;;;5037257;28;20029;-79
2023/08/22 09:41:45;;;;;;;3.58;3.28;;;31.40;69.60;;;;;;5054385;28;20395;-79
2023/08/22 09:44:11;;;;;;;4.47;3.47;;;31.50;72.00;;;;;;5053195;28;20021;-77
2023/08/22 09:46:42;;;;;;;4.32;3.90;;;31.60;72.30;;;;;;5035193;28;20189;-78
2023/08/22 09:49:13;;;;;;;4.93;3.50;;;31.70;68.20;;;;;;5040190;28;20025;-80
2023/08/22 09:51:39;;;;;;;5.90;3.90;;;31.70;73.00;;;;;;5054022;28;20075;-79
2023/08/22 09:54:06;;;;;;;4.15;3.67;;;31.80;71.40;;;;;;5055120;28;20027;-80
2023/08/22 09:56:32;;;;;;;4.10;3.30;;;31.80;70.70;;;;;;5036888;28;20050;-80
2023/08/22 09:59:00;;;;;;;4.90;3.78;;;31.90;70.50;;;;;;5036775;28;20574;-80
2023/08/22 10:01:33;;;;;;;6.43;3.28;;;31.80;72.90;;;;;;5035282;28;20017;-80
2023/08/22 10:04:04;;;;;;;4.47;4.03;;;31.90;74.40;;;;;;5053992;28;20132;-79
2023/08/22 10:06:33;;;;;;;3.42;3.13;;;31.90;73.90;;;;;;5035858;28;20029;-81
2023/08/22 10:09:04;;;;;;;4.00;3.47;;;31.90;69.60;;;;;;5035248;28;20036;-81
2023/08/22 10:11:31;;;;;;;4.43;3.33;;;31.90;68.10;;;;;;5053053;28;20408;-80
2023/08/22 10:13:57;;;;;;;3.70;3.03;;;31.90;70.50;;;;;;5038865;28;20017;-79
2023/08/22 10:16:29;;;;;;;3.40;3.13;;;32.10;69.10;;;;;;5040080;28;20025;-80
2023/08/22 10:19:02;;;;;;;4.03;3.10;;;32.20;68.50;;;;;;5038599;28;20033;-79
2023/08/22 10:21:46;;;;;;;3.77;3.47;;;32.30;68.10;;;;;;5059094;28;20036;-79
2023/08/22 10:24:30;;;;;;;2.88;2.60;;;32.30;66.10;;;;;;5039278;28;20120;-78
2023/08/22 10:27:04;;;;;;;3.20;2.88;;;32.40;63.20;;;;;;5039414;28;20029;-79
2023/08/22 10:29:33;;;;;;;3.20;2.90;;;32.50;63.70;;;;;;5057523;28;20071;-79
2023/08/22 10:32:02;;;;;;;3.13;2.83;;;32.40;61.30;;;;;;5038732;28;20059;-79
2023/08/22 10:34:33;;;;;;;6.78;3.22;;;32.40;60.30;;;;;;5055998;28;20465;-81
2023/08/22 10:37:00;;;;;;;3.40;3.10;;;32.40;62.80;;;;;;5038172;28;20025;-79
2023/08/22 10:39:39;;;;;;;2.92;2.70;;;32.50;62.10;;;;;;5056795;28;20024;-79
2023/08/22 10:42:06;;;;;;;6.15;3.17;;;32.60;60.60;;;;;;5056755;28;20017;-79
2023/08/22 10:44:31;;;;;;;2.72;2.53;;;32.70;61.70;;;;;;5040843;28;20111;-81
2023/08/22 10:47:04;;;;;;;3.33;3.03;;;32.70;63.30;;;;;;5058875;28;20101;-80
2023/08/22 10:49:31;;;;;;;3.13;2.83;;;32.90;62.50;;;;;;5041358;28;20053;-79
2023/08/22 10:52:07;;;;;;;5.45;2.80;;;32.80;60.30;;;;;;5042714;28;20025;-81
2023/08/22 10:54:33;;;;;;;2.78;2.47;;;32.70;56.70;;;;;;5043150;28;20044;-80
2023/08/22 10:57:18;;;;;;;3.92;2.15;;;32.70;55.80;;;;;;5041922;28;20024;-80
2023/08/22 10:59:59;;;;;;;6.53;3.00;;;32.70;55.80;;;;;;5058020;28;20083;-79
2023/08/22 11:02:30;;;;;;;3.80;2.72;;;32.70;57.30;;;;;;5040585;28;20052;-78
2023/08/22 11:05:01;;;;;;;4.65;3.28;;;32.60;58.90;;;;;;5039701;28;20570;-80
2023/08/22 11:07:28;;;;;;;3.42;3.13;;;32.60;59.00;;;;;;5039760;28;20040;-79
2023/08/22 11:09:54;;;;;;;3.67;2.80;;;32.60;59.40;;;;;;5037915;28;20025;-79
2023/08/22 11:12:21;;;;;;;4.05;2.78;;;32.70;60.90;;;;;;5055560;28;20070;-79
2023/08/22 11:14:48;;;;;;;3.30;3.00;;;32.90;59.40;;;;;;5037030;28;20032;-80
2023/08/22 11:17:19;;;;;;;3.35;3.15;;;33.00;59.40;;;;;;5036235;28;20028;-80
2023/08/22 11:19:45;;;;;;;3.97;3.10;;;32.90;58.30;;;;;;5055163;28;20498;-79
2023/08/22 11:22:11;;;;;;;4.45;3.35;;;33.00;59.30;;;;;;5038210;28;20021;-79
2023/08/22 11:24:41;;;;;;;3.22;2.92;;;33.10;59.00;;;;;;5055993;28;20108;-80
2023/08/22 11:27:07;;;;;;;3.85;3.53;;;33.00;59.80;;;;;;5039115;28;20047;-80
2023/08/22 11:29:49;;;;;;;3.17;2.85;;;33.10;60.70;;;;;;5039221;28;20025;-79
2023/08/22 11:32:23;;;;;;;5.35;2.83;;;33.10;62.00;;;;;;5023347;28;20044;-82
2023/08/22 11:34:54;;;;;;;3.83;3.47;;;33.10;55.70;;;;;;5017897;28;20021;-80
2023/08/22 11:37:20;;;;;;;4.07;3.10;;;33.00;57.60;;;;;;5017385;28;20032;-82
2023/08/22 11:39:50;;;;;;;3.13;2.10;;;33.10;59.70;;;;;;5021104;28;20030;-78
2023/08/22 11:42:16;;;;;;;2.08;1.65;;;33.20;50.60;;;;;;5050920;28;20021;-80
2023/08/22 11:45:04;;;;;;;3.30;1.80;;;33.40;45.10;;;;;;5039267;28;20033;-81
2023/08/22 11:47:49;;;;;;;2.15;1.95;;;33.40;48.80;;;;;;5019202;28;20140;-80
2023/08/22 11:50:14;;;;;;;;;;;33.60;49.80;;;;;;5039418;28;20032;-80
2023/08/22 11:52:41;;;;;;;2.38;2.17;;;33.60;49.50;;;;;;5017318;28;20314;-81
2023/08/22 11:55:08;;;;;;;2.95;2.67;;;33.70;50.60;;;;;;5019108;28;20026;-81
2023/08/22 11:57:37;;;;;;;3.25;2.60;;;33.80;52.80;;;;;;5017106;28;20025;-81
2023/08/22 12:00:06;;;;;;;2.90;2.60;;;33.70;48.20;;;;;;5021161;28;20211;-82
2023/08/22 12:02:31;;;;;;;4.65;2.72;;;33.80;51.50;;;;;;5039000;28;20372;-80
2023/08/22 12:04:57;;;;;;;2.60;2.40;;;33.70;54.00;;;;;;5022188;28;20032;-81
2023/08/22 12:07:23;;;;;;;3.03;2.80;;;33.50;54.80;;;;;;5020340;28;20025;-81
2023/08/22 12:09:59;;;;;;;3.05;2.58;;;33.60;56.90;;;;;;5022483;28;20427;-80
2023/08/22 12:12:25;;;;;;;3.42;2.65;;;33.80;56.30;;;;;;5022079;28;20029;-81
2023/08/22 12:14:51;;;;;;;5.40;2.65;;;33.80;55.80;;;;;;5019723;28;20018;-82
2023/08/22 12:17:18;;;;;;;4.47;2.40;;;33.80;54.20;;;;;;5036371;28;20029;-81
2023/08/22 12:19:44;;;;;;;2.97;2.70;;;33.80;53.80;;;;;;5036050;28;20021;-82
2023/08/22 12:22:10;;;;;;;3.42;2.72;;;33.60;52.40;;;;;;5018409;28;20025;-81
2023/08/22 12:24:36;;;;;;;2.42;2.17;;;33.50;52.90;;;;;;5018389;28;20026;-80
2023/08/22 12:27:01;;;;;;;3.47;2.50;;;33.30;50.30;;;;;;5039692;28;20096;-81
2023/08/22 12:29:27;;;;;;;2.53;2.33;;;33.20;49.70;;;;;;5034087;28;20104;-82
2023/08/22 12:31:52;;;;;;;2.85;2.55;;;33.30;49.10;;;;;;5018036;28;20075;-82
2023/08/22 12:34:18;;;;;;;3.88;3.00;;;33.40;50.70;;;;;;5033874;28;20476;-81
2023/08/22 12:36:44;;;;;;;3.53;3.22;;;33.60;50.40;;;;;;5015843;28;20025;-82
2023/08/22 12:39:11;;;;;;;2.08;1.98;;;33.50;51.50;;;;;;5016146;28;20434;-80
2023/08/22 12:41:38;;;;;;;2.15;1.95;;;33.70;51.70;;;;;;5017307;28;20029;-80
2023/08/22 12:44:04;;;;;;;2.95;2.50;;;33.80;49.00;;;;;;5017747;28;20038;-79
2023/08/22 12:46:30;;;;;;;2.42;1.88;;;33.80;48.90;;;;;;5018081;28;20030;-79